Time;durP1;ratioP1;P1;durP2;ratioP2;P2;SDS_P1;SDS_P2;PMS_P1;PMS_P2;Temp;Humidity;BMP_temperature;BMP_pressure;BME280_temperature;BME280_humidity;BME280_pressure;Samples;Min_cycle;Max_cycle;Signal;HPM_P1;HPM_P2
2021/04/29 00:01:46;;;;;;;7.33;6.67;;;;;;;12.10;60.72;96630.50;5063503;28;20230;-70
2021/04/29 00:04:13;;;;;;;6.80;6.00;;;;;;;11.91;61.35;96627.63;5063825;28;20403;-71
2021/04/29 00:06:42;;;;;;;9.40;6.07;;;;;;;11.79;62.49;96621.34;5060953;28;20207;-71
2021/04/29 00:09:09;;;;;;;6.83;6.33;;;;;;;11.72;62.91;96622.13;5064232;28;20203;-71
2021/04/29 00:11:36;;;;;;;7.83;6.93;;;;;;;11.70;63.30;96618.88;5060678;28;20238;-71
2021/04/29 00:14:05;;;;;;;7.37;6.63;;;;;;;11.65;63.72;96623.97;5064120;28;20714;-71
2021/04/29 00:16:32;;;;;;;6.80;6.23;;;;;;;11.64;63.86;96630.31;5064640;28;20207;-71
2021/04/29 00:19:00;;;;;;;6.57;5.97;;;;;;;11.69;63.65;96627.03;5062389;28;20287;-72
2021/04/29 00:21:28;;;;;;;6.47;5.87;;;;;;;11.62;64.74;96636.84;5060965;28;20761;-71
2021/04/29 00:23:55;;;;;;;6.77;5.87;;;;;;;11.56;65.09;96628.69;5059652;28;20229;-71
2021/04/29 00:26:22;;;;;;;6.03;5.53;;;;;;;11.64;65.05;96629.50;5062338;28;20211;-71
2021/04/29 00:28:51;;;;;;;6.07;5.67;;;;;;;11.65;65.42;96625.81;5059237;28;20322;-71
2021/04/29 00:31:18;;;;;;;6.90;6.13;;;;;;;11.64;66.03;96634.81;5063689;28;20241;-71
2021/04/29 00:33:44;;;;;;;5.90;5.50;;;;;;;11.49;68.07;96632.34;5064069;28;20199;-71
2021/04/29 00:36:11;;;;;;;7.10;6.50;;;;;;;11.47;69.09;96629.09;5056907;28;20656;-71
2021/04/29 00:38:38;;;;;;;7.87;7.07;;;;;;;11.38;70.19;96633.75;5063265;28;20209;-71
2021/04/29 00:41:06;;;;;;;6.07;5.53;;;;;;;11.37;70.44;96632.97;5058887;28;20212;-71
2021/04/29 00:43:33;;;;;;;6.40;5.47;;;;;;;11.26;71.10;96637.03;5063739;28;20219;-71
2021/04/29 00:46:00;;;;;;;5.97;5.50;;;;;;;11.21;71.44;96635.97;5062237;28;20773;-71
2021/04/29 00:48:27;;;;;;;6.90;6.20;;;;;;;11.19;71.48;96628.25;5058131;28;20234;-71
2021/04/29 00:50:54;;;;;;;6.43;5.93;;;;;;;11.13;71.25;96627.19;5062642;28;20218;-72
2021/04/29 00:53:32;;;;;;;8.33;6.63;;;;;;;11.31;70.67;96636.41;5059335;28;20227;-70
2021/04/29 00:55:59;;;;;;;7.77;6.20;;;;;;;11.31;71.38;96625.78;5061031;28;20237;-71
2021/04/29 00:58:27;;;;;;;6.73;6.17;;;;;;;11.39;71.05;96632.75;5063202;28;20206;-71
2021/04/29 01:00:54;;;;;;;7.07;6.47;;;;;;;11.40;70.58;96627.25;5061858;28;20770;-70
2021/04/29 01:03:29;;;;;;;8.27;6.43;;;;;;;11.43;70.33;96632.16;5058940;28;20230;-71
2021/04/29 01:05:59;;;;;;;6.77;6.20;;;;;;;11.45;70.03;96634.56;5059187;28;20213;-71
2021/04/29 01:08:30;;;;;;;6.53;5.87;;;;;;;11.40;69.81;96631.72;5058975;28;20214;-72
2021/04/29 01:11:00;;;;;;;6.80;6.10;;;;;;;11.33;70.86;96630.91;5058207;28;20206;-71
2021/04/29 01:13:31;;;;;;;8.00;6.87;;;;;;;11.40;70.23;96621.13;5060848;28;20222;-72
2021/04/29 01:15:58;;;;;;;7.40;6.70;;;;;;;11.34;71.17;96619.28;5060298;28;20210;-71
2021/04/29 01:18:26;;;;;;;7.33;6.73;;;;;;;11.50;69.91;96605.59;5060423;28;20489;-71
2021/04/29 01:21:00;;;;;;;7.20;6.57;;;;;;;11.36;70.66;96618.03;5054476;28;20203;-71
2021/04/29 01:23:29;;;;;;;6.60;6.10;;;;;;;11.33;70.75;96633.56;5062428;28;20230;-71
2021/04/29 01:25:59;;;;;;;6.70;6.20;;;;;;;11.24;71.55;96633.75;5058887;28;20207;-71
2021/04/29 01:28:28;;;;;;;6.57;6.07;;;;;;;11.26;71.63;96637.03;5059072;28;20683;-71
2021/04/29 01:30:56;;;;;;;7.10;6.33;;;;;;;11.14;72.19;96638.59;5062848;28;20395;-71
2021/04/29 01:33:23;;;;;;;6.60;6.10;;;;;;;11.08;73.70;96642.91;5056997;28;20801;-71
2021/04/29 01:35:50;;;;;;;7.67;7.07;;;;;;;11.26;72.28;96647.63;5061723;28;20207;-71
2021/04/29 01:38:18;;;;;;;7.00;6.50;;;;;;;11.16;73.30;96647.19;5060542;28;20214;-71
2021/04/29 01:40:45;;;;;;;7.20;6.63;;;;;;;11.17;73.61;96640.84;5053347;28;20206;-71
2021/04/29 01:43:13;;;;;;;7.37;6.60;;;;;;;11.05;74.19;96653.06;5058814;28;20788;-71
2021/04/29 01:45:42;;;;;;;7.00;6.40;;;;;;;11.00;74.74;96653.69;5061898;28;20230;-70
2021/04/29 01:48:09;;;;;;;7.67;6.97;;;;;;;11.05;74.08;96637.16;5057095;28;20211;-70
2021/04/29 01:50:37;;;;;;;7.47;6.90;;;;;;;10.97;74.53;96643.47;5056825;28;20739;-71
2021/04/29 01:53:05;;;;;;;7.07;6.40;;;;;;;11.06;74.33;96641.44;5060818;28;20219;-71
2021/04/29 01:55:33;;;;;;;7.37;6.77;;;;;;;10.93;74.99;96645.72;5060928;28;20207;-71
2021/04/29 01:58:01;;;;;;;7.37;6.80;;;;;;;10.99;74.72;96642.25;5061034;28;20210;-71
2021/04/29 02:00:28;;;;;;;7.13;6.50;;;;;;;10.92;75.57;96643.25;5062527;28;20214;-71
2021/04/29 02:02:55;;;;;;;9.03;7.07;;;;;;;10.87;75.54;96638.56;5062053;28;20599;-71
2021/04/29 02:05:23;;;;;;;7.93;7.23;;;;;;;10.94;76.12;96644.69;5061133;28;20199;-71
2021/04/29 02:07:50;;;;;;;8.27;7.47;;;;;;;10.84;76.11;96639.75;5061294;28;20225;-71
2021/04/29 02:10:17;;;;;;;8.40;7.60;;;;;;;10.80;76.27;96646.47;5060770;28;20207;-71
2021/04/29 02:12:47;;;;;;;8.07;7.37;;;;;;;10.69;77.56;96647.84;5060774;28;20223;-71
2021/04/29 02:15:15;;;;;;;7.47;6.87;;;;;;;10.74;77.23;96643.78;5060679;28;20610;-71
2021/04/29 02:17:44;;;;;;;7.17;6.73;;;;;;;10.63;78.01;96643.34;5056357;28;20527;-71
2021/04/29 02:20:13;;;;;;;8.00;7.30;;;;;;;10.65;77.96;96638.69;5060654;28;20235;-71
2021/04/29 02:22:42;;;;;;;7.33;6.63;;;;;;;10.64;77.93;96637.03;5055387;28;20227;-71
2021/04/29 02:25:10;;;;;;;7.60;7.10;;;;;;;10.63;77.30;96640.72;5060386;28;20226;-71
2021/04/29 02:27:38;;;;;;;7.40;6.80;;;;;;;10.53;78.20;96642.91;5061252;28;20210;-71
2021/04/29 02:30:07;;;;;;;7.60;7.00;;;;;;;10.45;78.92;96645.72;5061910;28;20229;-71
2021/04/29 02:32:34;;;;;;;6.70;6.20;;;;;;;10.40;79.76;96636.53;5059939;28;20237;-70
2021/04/29 02:35:04;;;;;;;7.60;7.00;;;;;;;10.41;78.81;96646.09;5059131;28;20297;-71
2021/04/29 02:37:32;;;;;;;8.17;7.57;;;;;;;10.37;79.44;96639.53;5060930;28;20198;-71
2021/04/29 02:39:59;;;;;;;7.57;6.87;;;;;;;10.37;78.89;96636.88;5059366;28;20206;-71
2021/04/29 02:42:26;;;;;;;7.20;6.70;;;;;;;10.35;79.55;96641.56;5054932;28;20232;-70
2021/04/29 02:44:54;;;;;;;8.20;7.30;;;;;;;10.33;79.87;96634.84;5052042;28;20215;-69
2021/04/29 02:47:21;;;;;;;7.80;7.20;;;;;;;10.28;80.02;96636.25;5056395;28;20223;-71
2021/04/29 02:49:48;;;;;;;8.23;7.43;;;;;;;10.24;79.83;96644.75;5057697;28;20445;-67
2021/04/29 02:52:15;;;;;;;7.10;6.60;;;;;;;10.28;80.33;96638.06;5056545;28;20231;-67
2021/04/29 02:54:43;;;;;;;7.63;6.93;;;;;;;10.07;81.48;96639.78;5056032;28;20203;-70
2021/04/29 02:57:20;;;;;;;7.10;6.60;;;;;;;10.03;81.54;96641.16;5051277;28;20218;-69
2021/04/29 02:59:47;;;;;;;7.60;6.97;;;;;;;10.14;81.21;96643.28;5054926;28;20209;-69
2021/04/29 03:02:15;;;;;;;8.70;7.77;;;;;;;10.12;80.58;96647.97;5058227;28;20249;-69
2021/04/29 03:04:42;;;;;;;8.07;7.43;;;;;;;10.14;80.54;96643.28;5059379;28;20513;-69
2021/04/29 03:07:09;;;;;;;7.73;7.13;;;;;;;10.25;80.90;96641.94;5060059;28;20211;-68
2021/04/29 03:09:36;;;;;;;7.83;7.13;;;;;;;10.35;80.42;96646.84;5058847;28;20575;-70
2021/04/29 03:12:05;;;;;;;7.63;6.97;;;;;;;10.21;81.38;96645.16;5058125;28;20215;-69
2021/04/29 03:14:33;;;;;;;8.10;7.37;;;;;;;10.26;80.19;96646.22;5055039;28;20210;-69
2021/04/29 03:17:00;;;;;;;7.70;7.07;;;;;;;10.28;81.39;96640.72;5058345;28;20203;-69
2021/04/29 03:19:27;;;;;;;7.80;7.20;;;;;;;10.44;80.44;96646.75;5060346;28;20294;-70
2021/04/29 03:21:54;;;;;;;7.63;7.03;;;;;;;10.60;78.42;96651.69;5058406;28;20638;-70
2021/04/29 03:24:21;;;;;;;7.83;7.13;;;;;;;10.57;79.09;96652.91;5060363;28;20507;-70
2021/04/29 03:27:05;;;;;;;7.20;6.70;;;;;;;10.61;79.30;96653.34;5060875;28;20246;-69
2021/04/29 03:29:32;;;;;;;7.37;6.83;;;;;;;10.42;79.83;96661.00;5059152;28;20286;-69
2021/04/29 03:31:59;;;;;;;7.47;6.87;;;;;;;10.44;80.26;96670.59;5060845;28;20223;-69
2021/04/29 03:34:27;;;;;;;7.93;7.33;;;;;;;10.34;80.25;96665.59;5059330;28;20195;-69
2021/04/29 03:36:54;;;;;;;8.10;7.17;;;;;;;10.32;81.26;96671.09;5059649;28;20726;-69
2021/04/29 03:39:21;;;;;;;7.53;6.83;;;;;;;10.41;80.42;96674.44;5060826;28;20214;-69
2021/04/29 03:41:48;;;;;;;7.50;6.87;;;;;;;10.34;81.28;96674.34;5059675;28;20753;-69
2021/04/29 03:44:16;;;;;;;6.93;6.33;;;;;;;10.38;84.23;96674.78;5060297;28;20207;-70
2021/04/29 03:46:43;;;;;;;6.37;5.97;;;;;;;10.46;85.30;96671.19;5053022;28;20260;-69
2021/04/29 03:49:10;;;;;;;5.57;5.13;;;;;;;10.61;84.35;96668.44;5058850;28;20206;-69
2021/04/29 03:51:37;;;;;;;6.03;5.63;;;;;;;10.61;84.21;96669.22;5057768;28;20227;-69
2021/04/29 03:54:05;;;;;;;6.53;5.43;;;;;;;10.59;84.35;96670.44;5053462;28;20563;-69
2021/04/29 03:56:31;;;;;;;5.83;5.43;;;;;;;10.61;83.51;96671.06;5053859;28;20203;-69
2021/04/29 03:58:58;;;;;;;6.00;5.60;;;;;;;10.60;84.79;96680.00;5057423;28;20214;-70
2021/04/29 04:01:26;;;;;;;6.00;5.57;;;;;;;10.56;85.75;96683.06;5060040;28;20761;-71
2021/04/29 04:03:54;;;;;;;6.10;5.60;;;;;;;10.57;87.22;96684.69;5058655;28;20228;-71
2021/04/29 04:06:21;;;;;;;5.40;5.10;;;;;;;10.50;87.65;96680.38;5057569;28;20207;-70
2021/04/29 04:08:48;;;;;;;5.57;5.17;;;;;;;10.58;88.66;96693.47;5057583;28;20206;-69
2021/04/29 04:11:15;;;;;;;5.73;5.23;;;;;;;10.60;89.18;96686.13;5059447;28;20203;-70
2021/04/29 04:13:42;;;;;;;5.23;4.83;;;;;;;10.66;88.29;96689.84;5062549;28;20245;-71
2021/04/29 04:16:11;;;;;;;5.90;5.40;;;;;;;10.62;88.68;96696.56;5064695;28;20218;-70
2021/04/29 04:18:40;;;;;;;5.37;5.07;;;;;;;10.68;88.23;96698.41;5063906;28;20689;-70
2021/04/29 04:21:07;;;;;;;4.70;4.40;;;;;;;10.65;88.89;96701.47;5063085;28;20199;-70
2021/04/29 04:23:35;;;;;;;5.73;5.33;;;;;;;10.67;89.41;96715.31;5062444;28;20675;-69
2021/04/29 04:26:02;;;;;;;5.77;5.37;;;;;;;10.67;89.03;96721.44;5061062;28;20208;-70
2021/04/29 04:28:30;;;;;;;6.57;5.20;;;;;;;10.86;88.64;96719.09;5063821;28;20489;-70
2021/04/29 04:30:57;;;;;;;5.10;4.67;;;;;;;10.70;89.17;96728.19;5062702;28;20225;-70
2021/04/29 04:33:24;;;;;;;5.43;4.93;;;;;;;10.86;89.34;96730.50;5060290;28;20603;-70
2021/04/29 04:35:52;;;;;;;5.47;5.07;;;;;;;10.85;88.74;96728.84;5064051;28;20210;-68
2021/04/29 04:38:19;;;;;;;5.83;5.23;;;;;;;11.01;87.79;96740.16;5061920;28;20211;-71
2021/04/29 04:40:46;;;;;;;5.43;5.10;;;;;;;10.94;88.49;96736.63;5063549;28;20202;-65
2021/04/29 04:43:13;;;;;;;6.23;5.63;;;;;;;11.01;88.44;96737.50;5061383;28;20608;-66
2021/04/29 04:45:43;;;;;;;5.77;5.37;;;;;;;10.95;89.34;96752.34;5062641;28;20645;-66
2021/04/29 04:48:10;;;;;;;5.83;5.23;;;;;;;10.93;89.16;96746.44;5061706;28;20674;-66
2021/04/29 04:50:38;;;;;;;5.73;5.13;;;;;;;10.98;88.98;96748.47;5061721;28;20207;-65
2021/04/29 04:53:06;;;;;;;5.80;5.30;;;;;;;11.10;88.73;96752.22;5061177;28;21407;-71
2021/04/29 04:55:35;;;;;;;6.03;5.43;;;;;;;11.17;87.95;96746.13;5052763;28;20602;-71
2021/04/29 04:58:02;;;;;;;5.70;5.30;;;;;;;11.15;88.45;96757.75;5058577;28;20586;-71
2021/04/29 05:00:29;;;;;;;5.83;5.43;;;;;;;11.13;87.90;96758.94;5063693;28;20687;-71
2021/04/29 05:02:56;;;;;;;5.30;5.00;;;;;;;11.10;89.18;96762.00;5060111;28;20231;-72
2021/04/29 05:05:24;;;;;;;6.00;5.60;;;;;;;11.03;89.60;96758.50;5059890;28;20667;-71
2021/04/29 05:07:51;;;;;;;5.73;5.17;;;;;;;11.02;89.70;96754.22;5062609;28;20210;-71
2021/04/29 05:10:19;;;;;;;5.90;5.50;;;;;;;11.09;89.53;96761.19;5063929;28;20203;-71
2021/04/29 05:12:46;;;;;;;5.33;4.83;;;;;;;11.19;88.68;96763.47;5063665;28;20233;-70
2021/04/29 05:15:13;;;;;;;4.83;4.53;;;;;;;11.10;89.44;96762.81;5062598;28;20522;-71
2021/04/29 05:17:40;;;;;;;5.20;4.90;;;;;;;11.19;89.07;96763.47;5062917;28;20570;-69
2021/04/29 05:20:08;;;;;;;5.00;4.70;;;;;;;11.47;86.90;96767.03;5056323;28;20226;-71
2021/04/29 05:22:35;;;;;;;5.43;4.97;;;;;;;11.29;88.14;96771.03;5059609;28;20226;-71
2021/04/29 05:25:02;;;;;;;5.17;4.87;;;;;;;11.25;87.75;96775.09;5063010;28;20203;-71
2021/04/29 05:27:30;;;;;;;5.17;4.77;;;;;;;11.17;89.48;96776.09;5058359;28;20313;-70
2021/04/29 05:29:57;;;;;;;5.33;4.83;;;;;;;11.12;90.17;96774.03;5060841;28;20624;-70
2021/04/29 05:32:24;;;;;;;5.00;4.70;;;;;;;11.13;90.55;96780.16;5059478;28;20225;-71
2021/04/29 05:34:51;;;;;;;5.10;4.77;;;;;;;11.17;90.53;96775.28;5059251;28;20227;-71
2021/04/29 05:37:18;;;;;;;4.97;4.67;;;;;;;11.18;90.57;96777.75;5060744;28;20199;-71
2021/04/29 05:39:45;;;;;;;4.57;4.27;;;;;;;11.16;91.52;96787.72;5060951;28;20206;-69
2021/04/29 05:42:12;;;;;;;4.80;4.40;;;;;;;11.09;92.23;96797.47;5062141;28;20241;-71
2021/04/29 05:44:40;;;;;;;4.50;4.20;;;;;;;11.07;92.94;96794.19;5061564;28;20289;-71
2021/04/29 05:47:08;;;;;;;5.13;4.83;;;;;;;10.94;94.06;96801.06;5060968;28;20214;-71
2021/04/29 05:49:36;;;;;;;5.10;4.67;;;;;;;11.04;93.88;96795.44;5060922;28;20321;-71
2021/04/29 05:52:03;;;;;;;4.97;4.60;;;;;;;11.03;94.25;96796.44;5054109;28;20523;-71
2021/04/29 05:54:30;;;;;;;4.90;4.60;;;;;;;11.04;93.80;96808.69;5060546;28;20199;-71
2021/04/29 05:56:57;;;;;;;4.70;4.30;;;;;;;11.15;92.40;96804.63;5062314;28;20683;-71
2021/04/29 05:59:25;;;;;;;4.57;4.27;;;;;;;11.09;92.25;96813.38;5061319;28;20242;-70
2021/04/29 06:01:53;;;;;;;4.70;4.40;;;;;;;11.23;91.44;96816.91;5059098;28;20224;-71
2021/04/29 06:04:40;;;;;;;5.40;5.00;;;;;;;11.19;91.65;96813.84;5058979;28;20207;-71
2021/04/29 06:07:07;;;;;;;5.27;4.97;;;;;;;11.13;90.93;96809.31;5060708;28;20211;-70
2021/04/29 06:09:34;;;;;;;4.93;4.63;;;;;;;11.20;90.28;96814.66;5061371;28;20207;-71
2021/04/29 06:12:02;;;;;;;4.77;4.47;;;;;;;11.24;89.44;96826.50;5059203;28;20561;-71
2021/04/29 06:14:29;;;;;;;3.93;3.70;;;;;;;11.24;86.25;96821.19;5061348;28;20606;-71
2021/04/29 06:16:56;;;;;;;4.20;3.90;;;;;;;11.28;84.85;96839.19;5061612;28;20252;-71
2021/04/29 06:19:24;;;;;;;3.30;3.10;;;;;;;11.29;84.06;96846.13;5057474;28;20207;-70
2021/04/29 06:21:51;;;;;;;3.37;3.17;;;;;;;11.31;82.68;96858.38;5057295;28;21110;-70
2021/04/29 06:24:18;;;;;;;3.20;3.00;;;;;;;11.25;82.31;96852.84;5061031;28;20230;-71
2021/04/29 06:26:45;;;;;;;3.03;2.93;;;;;;;11.15;81.25;96857.66;5061960;28;20222;-71
2021/04/29 06:29:12;;;;;;;3.17;3.07;;;;;;;11.15;80.79;96866.44;5058736;28;20208;-71
2021/04/29 06:31:41;;;;;;;3.20;3.00;;;;;;;11.05;81.08;96866.00;5059354;28;20243;-71
2021/04/29 06:34:08;;;;;;;3.50;3.30;;;;;;;11.16;80.95;96872.56;5062266;28;20203;-71
2021/04/29 06:36:35;;;;;;;3.07;2.97;;;;;;;11.28;79.69;96880.78;5061215;28;20206;-71
2021/04/29 06:39:04;;;;;;;3.80;3.60;;;;;;;11.24;79.11;96879.53;5052789;28;20416;-71
2021/04/29 06:41:30;;;;;;;3.53;3.33;;;;;;;11.29;79.85;96883.25;5057100;28;20218;-71
2021/04/29 06:43:58;;;;;;;4.00;3.70;;;;;;;11.49;79.05;96889.69;5062695;28;20607;-72
2021/04/29 06:46:25;;;;;;;3.53;3.33;;;;;;;11.43;78.89;96886.81;5062188;28;20203;-70
2021/04/29 06:48:52;;;;;;;3.93;3.73;;;;;;;11.42;79.30;96892.28;5058452;28;20199;-71
2021/04/29 06:51:20;;;;;;;3.47;3.27;;;;;;;11.51;79.00;96896.41;5054933;28;20206;-70
2021/04/29 06:54:03;;;;;;;4.10;3.80;;;;;;;11.50;78.60;96900.09;5060970;28;20195;-71
2021/04/29 06:56:30;;;;;;;3.97;3.77;;;;;;;11.56;78.33;96899.31;5061486;28;20702;-71
2021/04/29 06:59:01;;;;;;;4.27;3.97;;;;;;;11.48;77.94;96899.47;5061322;28;20476;-71
2021/04/29 07:01:28;;;;;;;4.33;4.10;;;;;;;11.53;77.34;96886.41;5061295;28;20289;-71
2021/04/29 07:03:56;;;;;;;4.50;4.20;;;;;;;11.78;76.22;96903.69;5059559;28;20226;-70
2021/04/29 07:06:24;;;;;;;3.57;3.37;;;;;;;11.79;74.86;96913.28;5054195;28;20587;-71
2021/04/29 07:08:56;;;;;;;3.97;3.70;;;;;;;11.47;76.12;96899.66;5057340;28;20195;-71
2021/04/29 07:11:23;;;;;;;3.20;3.00;;;;;;;11.70;76.30;96912.63;5059075;28;20202;-73
2021/04/29 07:13:50;;;;;;;3.77;3.57;;;;;;;11.76;74.91;96906.53;5059554;28;20461;-72
2021/04/29 07:16:17;;;;;;;5.10;3.70;;;;;;;11.88;73.90;96915.53;5061404;28;20390;-71
2021/04/29 07:18:45;;;;;;;4.20;4.00;;;;;;;11.90;73.72;96911.88;5058720;28;20214;-70
2021/04/29 07:21:12;;;;;;;3.70;3.50;;;;;;;11.84;72.41;96909.00;5060664;28;20209;-70
2021/04/29 07:23:40;;;;;;;3.87;3.67;;;;;;;11.79;73.67;96915.94;5058222;28;20242;-71
2021/04/29 07:26:10;;;;;;;3.93;3.70;;;;;;;11.70;74.39;96924.06;5058265;28;20709;-71
2021/04/29 07:28:37;;;;;;;5.13;3.83;;;;;;;11.85;75.18;96915.16;5060655;28;20226;-71
2021/04/29 07:31:04;;;;;;;4.90;4.60;;;;;;;12.14;73.19;96919.34;5058457;28;20378;-70
2021/04/29 07:33:32;;;;;;;4.77;4.37;;;;;;;12.26;72.51;96926.72;5059863;28;20651;-71
2021/04/29 07:35:59;;;;;;;4.77;4.47;;;;;;;12.13;72.30;96933.63;5056779;28;20210;-71
2021/04/29 07:38:26;;;;;;;5.40;5.10;;;;;;;11.97;72.17;96923.34;5060742;28;20330;-71
2021/04/29 07:40:54;;;;;;;5.03;4.70;;;;;;;12.34;70.15;96928.38;5057642;28;20720;-71
2021/04/29 07:43:21;;;;;;;4.60;4.30;;;;;;;12.25;70.83;96935.69;5057731;28;20231;-71
2021/04/29 07:45:48;;;;;;;5.53;5.23;;;;;;;12.55;69.00;96936.19;5057105;28;20253;-71
2021/04/29 07:48:15;;;;;;;4.90;4.60;;;;;;;12.57;68.32;96931.50;5061852;28;20194;-71
2021/04/29 07:50:42;;;;;;;5.13;4.77;;;;;;;12.58;67.38;96934.94;5064637;28;20506;-71
2021/04/29 07:53:09;;;;;;;5.77;5.27;;;;;;;12.49;65.98;96938.81;5062339;28;20796;-71
2021/04/29 07:55:36;;;;;;;4.77;4.47;;;;;;;12.54;66.06;96949.66;5062994;28;20639;-71
2021/04/29 07:58:04;;;;;;;5.07;4.67;;;;;;;12.53;65.64;96948.03;5062027;28;20216;-70
2021/04/29 08:00:50;;;;;;;5.03;4.63;;;;;;;12.14;67.63;96956.53;5064966;28;20407;-71
2021/04/29 08:03:17;;;;;;;4.90;4.60;;;;;;;12.54;67.88;96954.97;5060982;28;20233;-71
2021/04/29 08:05:44;;;;;;;5.10;4.70;;;;;;;12.57;66.90;96957.22;5061347;28;20234;-71
2021/04/29 08:08:12;;;;;;;5.50;5.20;;;;;;;12.48;69.15;96955.78;5065174;28;20222;-71
2021/04/29 08:10:42;;;;;;;5.40;5.00;;;;;;;12.70;67.52;96956.44;5061591;28;20624;-71
2021/04/29 08:13:11;;;;;;;5.20;4.80;;;;;;;12.64;68.77;96958.06;5063418;28;20230;-71
2021/04/29 08:15:40;;;;;;;6.13;5.40;;;;;;;13.00;67.36;96959.50;5063496;28;20234;-71
2021/04/29 08:18:07;;;;;;;4.60;4.30;;;;;;;13.23;64.89;96970.75;5063512;28;20214;-71
2021/04/29 08:20:34;;;;;;;4.50;4.20;;;;;;;12.77;65.87;96978.53;5062913;28;20203;-71
2021/04/29 08:23:01;;;;;;;4.47;4.13;;;;;;;12.68;65.06;96969.91;5061033;28;20239;-72
2021/04/29 08:25:28;;;;;;;3.97;3.77;;;;;;;12.82;64.13;96969.94;5064231;28;20560;-71
2021/04/29 08:27:55;;;;;;;4.53;4.20;;;;;;;12.64;64.81;96968.69;5063462;28;20606;-71
2021/04/29 08:30:26;;;;;;;4.73;4.43;;;;;;;12.23;66.79;96974.94;5063265;28;20595;-71
2021/04/29 08:32:54;;;;;;;4.70;4.40;;;;;;;12.21;67.78;96979.63;5057771;28;20669;-71
2021/04/29 08:35:21;;;;;;;4.43;4.13;;;;;;;12.05;68.54;96983.44;5063637;28;20207;-71
2021/04/29 08:37:49;;;;;;;4.50;4.30;;;;;;;12.27;67.70;96981.47;5061416;28;20206;-71
2021/04/29 08:40:16;;;;;;;4.20;4.00;;;;;;;12.49;67.17;96976.03;5062406;28;20206;-71
2021/04/29 08:42:44;;;;;;;4.40;4.10;;;;;;;12.27;66.83;97000.91;5061930;28;20329;-71
2021/04/29 08:45:13;;;;;;;4.57;4.20;;;;;;;12.57;66.05;96999.75;5063157;28;20214;-71
2021/04/29 08:47:41;;;;;;;4.30;4.00;;;;;;;12.76;65.35;96984.84;5063027;28;20202;-70
2021/04/29 08:50:15;;;;;;;4.43;4.13;;;;;;;12.88;63.90;96980.59;5059944;28;20266;-71
2021/04/29 08:52:43;;;;;;;4.27;3.83;;;;;;;12.88;63.04;96982.41;5059978;28;20223;-71
2021/04/29 08:55:16;;;;;;;4.07;3.77;;;;;;;12.85;62.71;96990.81;5062532;28;20206;-70
2021/04/29 08:57:43;;;;;;;4.20;3.90;;;;;;;12.88;61.57;96995.72;5055163;28;20204;-71
2021/04/29 09:00:11;;;;;;;4.57;3.73;;;;;;;12.90;60.82;96987.56;5059314;28;20229;-71
2021/04/29 09:02:39;;;;;;;4.00;3.70;;;;;;;12.84;60.52;96984.66;5060184;28;20226;-71
2021/04/29 09:05:12;;;;;;;4.87;4.00;;;;;;;12.93;60.14;96990.59;5061093;28;20276;-71
2021/04/29 09:07:53;;;;;;;4.40;4.10;;;;;;;13.00;59.18;96979.97;5062000;28;20202;-71
2021/04/29 09:10:22;;;;;;;3.70;3.50;;;;;;;12.98;58.87;96987.34;5058566;28;20456;-69
2021/04/29 09:12:49;;;;;;;3.60;3.40;;;;;;;13.20;58.28;96989.78;5059463;28;20576;-71
2021/04/29 09:15:24;;;;;;;4.70;4.40;;;;;;;13.49;57.35;96985.91;5062313;28;20213;-70
2021/04/29 09:18:07;;;;;;;4.43;3.70;;;;;;;13.25;58.26;96985.50;5060718;28;20210;-71
2021/04/29 09:20:39;;;;;;;4.60;4.30;;;;;;;13.54;56.58;96983.44;5061431;28;20877;-71
2021/04/29 09:23:07;;;;;;;3.40;3.20;;;;;;;13.82;56.50;96990.31;5061217;28;20607;-71
2021/04/29 09:25:36;;;;;;;4.40;4.00;;;;;;;14.02;57.10;96989.44;5064068;28;20199;-70
2021/04/29 09:28:04;;;;;;;4.80;4.43;;;;;;;14.23;55.94;96996.31;5062360;28;20238;-71
2021/04/29 09:30:31;;;;;;;4.37;3.97;;;;;;;14.57;55.91;96985.47;5061456;28;20206;-70
2021/04/29 09:32:59;;;;;;;4.03;3.70;;;;;;;14.56;55.27;96990.00;5062528;28;20714;-71
2021/04/29 09:35:27;;;;;;;4.30;3.90;;;;;;;14.66;54.19;97002.88;5060310;28;20203;-71
2021/04/29 09:37:59;;;;;;;4.43;4.13;;;;;;;14.41;55.16;97006.28;5056893;28;20245;-70
2021/04/29 09:40:29;;;;;;;4.67;4.20;;;;;;;14.40;54.54;97004.66;5057892;28;20630;-71
2021/04/29 09:42:57;;;;;;;3.90;3.70;;;;;;;14.36;55.09;97016.78;5058192;28;20703;-71
2021/04/29 09:45:27;;;;;;;4.53;4.23;;;;;;;13.83;55.49;97007.13;5060174;28;20229;-71
2021/04/29 09:47:56;;;;;;;4.53;4.13;;;;;;;13.57;57.49;97012.31;5058010;28;20206;-70
2021/04/29 09:50:25;;;;;;;4.33;3.97;;;;;;;13.86;57.29;97020.84;5062625;28;20204;-71
2021/04/29 09:53:04;;;;;;;4.30;3.90;;;;;;;13.83;56.50;97015.94;5062410;28;20219;-69
2021/04/29 09:55:32;;;;;;;4.10;3.80;;;;;;;14.11;55.61;97019.34;5059424;28;20210;-70
2021/04/29 09:58:12;;;;;;;4.63;4.33;;;;;;;13.99;55.57;97019.16;5059975;28;20207;-70
2021/04/29 10:00:39;;;;;;;4.17;3.63;;;;;;;14.02;55.78;97010.75;5059726;28;20198;-69
2021/04/29 10:03:06;;;;;;;4.40;4.10;;;;;;;14.30;55.46;97012.28;5060866;28;20924;-71
2021/04/29 10:05:37;;;;;;;4.93;4.40;;;;;;;14.48;54.93;97009.72;5059712;28;20618;-71
2021/04/29 10:08:07;;;;;;;4.60;4.10;;;;;;;14.53;54.61;97006.44;5060458;28;20207;-71
2021/04/29 10:10:35;;;;;;;4.80;4.50;;;;;;;14.47;54.34;97001.97;5058429;28;20587;-70
2021/04/29 10:13:04;;;;;;;4.93;4.40;;;;;;;13.94;56.53;96997.69;5058273;28;20241;-71
2021/04/29 10:15:35;;;;;;;5.60;5.10;;;;;;;14.20;55.09;97002.09;5059295;28;20195;-70
2021/04/29 10:18:03;;;;;;;6.10;5.00;;;;;;;14.44;54.68;96997.06;5061988;28;20652;-71
2021/04/29 10:20:31;;;;;;;5.30;4.90;;;;;;;14.62;54.10;97001.69;5058648;28;20826;-71
2021/04/29 10:22:59;;;;;;;5.77;5.27;;;;;;;14.65;53.17;96993.25;5062711;28;20223;-71
2021/04/29 10:25:32;;;;;;;5.67;4.97;;;;;;;14.72;51.15;96986.03;5061039;28;20207;-72
2021/04/29 10:27:59;;;;;;;5.33;4.93;;;;;;;14.45;51.89;96990.69;5060263;28;20210;-71
2021/04/29 10:30:34;;;;;;;4.93;4.63;;;;;;;14.70;51.39;96987.25;5061280;28;20211;-71
2021/04/29 10:33:13;;;;;;;5.33;4.93;;;;;;;14.89;51.93;96988.19;5059412;28;20224;-71
2021/04/29 10:35:55;;;;;;;5.03;4.63;;;;;;;15.34;50.77;96969.34;5061763;28;20206;-71
2021/04/29 10:38:28;;;;;;;5.03;4.57;;;;;;;15.52;49.56;96978.41;5058329;28;20199;-71
2021/04/29 10:40:57;;;;;;;4.90;4.50;;;;;;;15.70;49.13;96966.09;5061562;28;20240;-71
2021/04/29 10:43:34;;;;;;;5.10;4.73;;;;;;;15.59;48.95;96973.81;5062435;28;20233;-71
2021/04/29 10:46:04;;;;;;;5.30;4.90;;;;;;;15.35;49.27;96970.16;5060395;28;20198;-71
2021/04/29 10:48:33;;;;;;;6.10;5.60;;;;;;;15.49;49.68;96966.31;5061218;28;20213;-72
2021/04/29 10:51:09;;;;;;;4.80;4.40;;;;;;;15.66;49.11;96959.56;5057088;28;20210;-71
2021/04/29 10:53:37;;;;;;;5.13;4.63;;;;;;;15.83;48.81;96944.59;5059496;28;20215;-72
2021/04/29 10:56:10;;;;;;;4.63;4.33;;;;;;;15.66;48.76;96947.06;5061152;28;20659;-71
2021/04/29 10:58:38;;;;;;;4.97;4.53;;;;;;;15.68;48.17;96938.81;5048713;28;20234;-71
2021/04/29 11:01:07;;;;;;;4.87;4.20;;;;;;;15.56;49.14;96944.88;5057600;28;20204;-70
2021/04/29 11:03:36;;;;;;;5.27;4.60;;;;;;;15.87;48.67;96937.78;5051763;28;20230;-71
2021/04/29 11:06:15;;;;;;;5.70;5.20;;;;;;;15.98;47.32;96943.41;5059519;28;20633;-71
2021/04/29 11:08:44;;;;;;;5.20;4.87;;;;;;;16.01;47.94;96940.28;5058877;28;20203;-71
2021/04/29 11:11:23;;;;;;;5.57;5.07;;;;;;;15.70;47.82;96942.06;5065774;28;20726;-71
2021/04/29 11:14:00;;;;;;;4.67;4.33;;;;;;;15.93;48.42;96940.59;5059092;28;20411;-71
2021/04/29 11:16:27;;;;;;;5.10;4.60;;;;;;;15.88;48.28;96934.09;5058010;28;20582;-71
2021/04/29 11:18:54;;;;;;;5.40;4.90;;;;;;;16.40;47.52;96938.13;5060331;28;20206;-71
2021/04/29 11:21:27;;;;;;;4.80;4.40;;;;;;;16.74;46.51;96932.31;5057707;28;20213;-70
2021/04/29 11:23:54;;;;;;;4.47;4.17;;;;;;;17.36;46.02;96934.59;5061798;28;20229;-71
2021/04/29 11:26:22;;;;;;;5.50;5.00;;;;;;;16.69;44.31;96935.66;5053636;28;20567;-71
2021/04/29 11:28:52;;;;;;;4.80;4.50;;;;;;;16.90;44.45;96928.94;5058851;28;20207;-71
2021/04/29 11:31:19;;;;;;;4.77;4.37;;;;;;;16.34;46.30;96933.69;5057779;28;20215;-72
2021/04/29 11:33:48;;;;;;;5.40;5.00;;;;;;;16.39;45.39;96933.81;5059926;28;20198;-69
2021/04/29 11:36:17;;;;;;;4.53;4.13;;;;;;;16.65;45.91;96931.81;5059673;28;20203;-71
2021/04/29 11:38:51;;;;;;;4.87;4.57;;;;;;;16.22;47.24;96946.22;5058768;28;20394;-72
2021/04/29 11:41:18;;;;;;;7.53;4.93;;;;;;;15.41;47.72;96945.25;5058532;28;20202;-71